Time;durP1;ratioP1;P1;durP2;ratioP2;P2;SDS_P1;SDS_P2;PMS_P1;PMS_P2;Temp;Humidity;BMP_temperature;BMP_pressure;BME280_temperature;BME280_humidity;BME280_pressure;Samples;Min_cycle;Max_cycle;Signal;HPM_P1;HPM_P2
2022/01/15 00:00:39;;;;;;;57.55;23.92;;;4.00;99.90;;;;;;5133030;27;20194;-49
2022/01/15 00:03:07;;;;;;;56.08;24.38;;;4.00;99.90;;;;;;5133385;27;20256;-48
2022/01/15 00:05:33;;;;;;;53.45;23.63;;;3.90;99.90;;;;;;5133321;27;20171;-49
2022/01/15 00:08:03;;;;;;;56.00;24.65;;;4.00;99.90;;;;;;5133510;27;20179;-48
2022/01/15 00:10:29;;;;;;;67.10;26.08;;;3.90;99.90;;;;;;5133360;27;20344;-48
2022/01/15 00:12:57;;;;;;;58.63;23.33;;;4.00;99.90;;;;;;5133298;27;20210;-47
2022/01/15 00:15:30;;;;;;;62.40;26.40;;;4.00;99.90;;;;;;5133059;27;20164;-48
2022/01/15 00:18:10;;;;;;;65.57;25.27;;;3.90;99.90;;;;;;5133351;27;20191;-48
2022/01/15 00:20:35;;;;;;;60.65;23.35;;;3.90;99.90;;;;;;5133242;27;20267;-48
2022/01/15 00:23:01;;;;;;;57.53;23.42;;;3.90;99.90;;;;;;5133420;27;20653;-48
2022/01/15 00:25:28;;;;;;;59.95;24.65;;;3.90;99.90;;;;;;5133090;27;20619;-48
2022/01/15 00:27:54;;;;;;;66.15;26.48;;;3.80;99.90;;;;;;5133042;27;20247;-48
2022/01/15 00:30:21;;;;;;;57.75;23.63;;;3.90;99.90;;;;;;5133229;27;20168;-49
2022/01/15 00:32:47;;;;;;;65.97;25.80;;;3.80;99.90;;;;;;5132919;28;20200;-48
2022/01/15 00:35:15;;;;;;;56.13;23.30;;;3.80;99.90;;;;;;5114483;28;20168;-48
2022/01/15 00:37:42;;;;;;;65.15;25.92;;;3.70;99.90;;;;;;5133116;27;20199;-48
2022/01/15 00:40:11;;;;;;;68.80;24.80;;;3.70;99.90;;;;;;5132897;27;20696;-48
2022/01/15 00:42:38;;;;;;;68.60;24.60;;;3.70;99.90;;;;;;5132882;27;20168;-48
2022/01/15 00:45:07;;;;;;;66.75;26.70;;;3.70;99.90;;;;;;5135085;27;20256;-48
2022/01/15 00:47:33;;;;;;;60.80;23.75;;;3.80;99.90;;;;;;5137241;27;20175;-48
2022/01/15 00:50:00;;;;;;;75.38;28.00;;;3.80;99.90;;;;;;5137222;27;20168;-48
2022/01/15 00:52:26;;;;;;;63.42;22.58;;;3.70;99.90;;;;;;5137045;27;20204;-48
2022/01/15 00:54:51;;;;;;;67.28;25.17;;;3.70;99.90;;;;;;5136891;27;20156;-48
2022/01/15 00:57:17;;;;;;;62.50;24.02;;;3.80;99.90;;;;;;5136770;27;20267;-49
2022/01/15 00:59:42;;;;;;;62.75;24.75;;;3.70;99.90;;;;;;5136857;27;20160;-48
2022/01/15 01:02:08;;;;;;;60.38;22.73;;;3.70;99.90;;;;;;5136590;27;20631;-48
2022/01/15 01:04:34;;;;;;;58.70;24.60;;;3.70;99.90;;;;;;5136137;27;20172;-48
2022/01/15 01:06:59;;;;;;;61.80;23.05;;;3.70;99.90;;;;;;5137023;27;20160;-48
2022/01/15 01:09:31;;;;;;;71.68;21.90;;;3.70;99.90;;;;;;5136785;27;20187;-48
2022/01/15 01:12:09;;;;;;;68.68;24.65;;;3.50;99.90;;;;;;5136382;27;20211;-49
2022/01/15 01:20:04;;;;;;;60.33;22.67;;;3.70;99.90;;;;;;5136466;27;20263;-48
2022/01/15 01:25:14;;;;;;;63.53;22.10;;;3.70;99.90;;;;;;5121056;27;20178;-48
2022/01/15 01:27:47;;;;;;;65.90;24.25;;;3.80;99.90;;;;;;5136240;27;20675;-47
2022/01/15 01:32:50;;;;;;;65.28;22.50;;;3.70;99.90;;;;;;5136354;27;20196;-48
2022/01/15 01:35:30;;;;;;;66.88;22.52;;;3.80;99.90;;;;;;5136385;27;20163;-48
2022/01/15 01:38:00;;;;;;;65.22;21.23;;;3.70;99.90;;;;;;5136277;27;20209;-48
2022/01/15 01:40:37;;;;;;;58.90;22.08;;;3.70;99.90;;;;;;5136233;27;20543;-48
2022/01/15 01:43:25;;;;;;;69.70;22.23;;;3.70;99.90;;;;;;5136234;27;20171;-48
2022/01/15 01:45:55;;;;;;;60.58;21.35;;;3.70;99.90;;;;;;5135678;27;20267;-48
2022/01/15 01:48:20;;;;;;;56.80;21.90;;;3.70;99.90;;;;;;5136054;27;20167;-49
2022/01/15 01:50:46;;;;;;;66.40;22.35;;;3.80;99.90;;;;;;5135783;27;20183;-48
2022/01/15 01:53:11;;;;;;;80.82;20.50;;;3.60;99.90;;;;;;5135906;27;20566;-48
2022/01/15 01:55:38;;;;;;;69.53;20.38;;;3.60;99.90;;;;;;5135204;27;20164;-47
2022/01/15 01:58:03;;;;;;;71.60;22.73;;;3.60;99.90;;;;;;5135321;27;20164;-51
2022/01/15 02:00:30;;;;;;;91.10;25.20;;;3.60;99.90;;;;;;5135992;27;20160;-48
2022/01/15 02:02:56;;;;;;;61.15;21.80;;;3.50;99.90;;;;;;5135565;27;20168;-48
2022/01/15 02:05:23;;;;;;;60.75;20.92;;;3.50;99.90;;;;;;5135544;27;20164;-49
2022/01/15 02:07:49;;;;;;;68.75;23.90;;;3.60;99.90;;;;;;5135676;27;20229;-50
2022/01/15 02:10:17;;;;;;;78.00;21.80;;;3.50;99.90;;;;;;5135243;27;20178;-49
2022/01/15 02:12:44;;;;;;;80.70;21.20;;;3.50;99.90;;;;;;5135541;27;20535;-49
2022/01/15 02:15:16;;;;;;;53.83;16.77;;;3.50;99.90;;;;;;5135418;27;20200;-49
2022/01/15 02:17:43;;;;;;;51.20;19.00;;;3.50;99.90;;;;;;5135425;27;20168;-49
2022/01/15 02:25:46;;;;;;;59.50;17.80;;;3.40;99.90;;;;;;5135193;27;20170;-48
2022/01/15 02:28:13;;;;;;;63.53;17.35;;;3.40;99.90;;;;;;5135049;27;20694;-49
2022/01/15 02:30:39;;;;;;;107.82;19.63;;;3.40;99.90;;;;;;5135054;27;20637;-50
2022/01/15 02:33:05;;;;;;;63.10;17.30;;;3.40;99.90;;;;;;5134971;27;20260;-49
2022/01/15 02:35:31;;;;;;;103.90;18.75;;;3.40;99.90;;;;;;5135231;27;20220;-50
2022/01/15 02:38:04;;;;;;;88.85;19.30;;;3.40;99.90;;;;;;5134930;27;20176;-49
2022/01/15 02:40:33;;;;;;;89.70;19.83;;;3.40;99.90;;;;;;5135240;27;20164;-49
2022/01/15 02:43:11;;;;;;;78.63;19.50;;;3.40;99.90;;;;;;5135356;27;20212;-49
2022/01/15 02:45:39;;;;;;;82.55;18.92;;;3.30;99.90;;;;;;5134812;27;20167;-47
2022/01/15 02:48:12;;;;;;;112.22;22.63;;;3.40;99.90;;;;;;5134982;27;20528;-47
2022/01/15 02:50:39;;;;;;;100.35;20.13;;;3.40;99.90;;;;;;5134703;27;20163;-47
2022/01/15 02:53:05;;;;;;;78.28;18.55;;;3.40;99.90;;;;;;5134490;27;20206;-47
2022/01/15 02:55:30;;;;;;;103.07;21.25;;;3.40;99.90;;;;;;5135042;27;20170;-47
2022/01/15 02:57:56;;;;;;;69.72;20.40;;;3.30;99.90;;;;;;5134492;27;20172;-48
2022/01/15 03:00:23;;;;;;;57.45;17.80;;;3.30;99.90;;;;;;5134464;27;20622;-47
2022/01/15 03:02:49;;;;;;;44.47;15.68;;;3.40;99.90;;;;;;5134644;27;20224;-48
2022/01/15 03:05:14;;;;;;;61.55;17.67;;;3.30;99.90;;;;;;5134356;27;20247;-47
2022/01/15 03:07:40;;;;;;;63.83;17.95;;;3.40;99.90;;;;;;5134203;27;20312;-47
2022/01/15 03:10:06;;;;;;;65.00;18.17;;;3.30;99.90;;;;;;5134134;27;20168;-47
2022/01/15 03:12:32;;;;;;;55.38;18.70;;;3.40;99.90;;;;;;5134554;27;20203;-47
2022/01/15 03:15:01;;;;;;;67.68;19.92;;;3.30;99.90;;;;;;5134448;27;20160;-49
2022/01/15 03:17:27;;;;;;;41.60;14.60;;;3.30;99.90;;;;;;5134707;27;20176;-47
2022/01/15 03:19:53;;;;;;;68.15;18.90;;;3.30;99.90;;;;;;5134000;27;20164;-48
2022/01/15 03:22:18;;;;;;;63.33;18.45;;;3.30;99.90;;;;;;5133995;27;20167;-47
2022/01/15 03:24:44;;;;;;;75.53;20.38;;;3.30;99.90;;;;;;5134031;27;20255;-47
2022/01/15 03:27:10;;;;;;;63.80;16.70;;;3.30;99.90;;;;;;5133919;27;20176;-47
2022/01/15 03:29:35;;;;;;;47.42;15.38;;;3.30;99.90;;;;;;5133946;27;20564;-48
2022/01/15 03:32:01;;;;;;;61.00;18.38;;;3.30;99.90;;;;;;5134141;27;20188;-48
2022/01/15 03:34:26;;;;;;;56.15;18.52;;;3.40;99.90;;;;;;5133731;27;20160;-48
2022/01/15 03:36:52;;;;;;;60.40;16.92;;;3.50;99.90;;;;;;5133777;27;20167;-48
2022/01/15 03:39:17;;;;;;;62.25;18.48;;;3.50;99.90;;;;;;5133665;27;20172;-48
2022/01/15 03:41:43;;;;;;;84.13;17.67;;;3.40;99.90;;;;;;5133703;27;20642;-47
2022/01/15 03:44:08;;;;;;;49.40;14.13;;;3.30;99.90;;;;;;5133783;27;20236;-48
2022/01/15 03:46:34;;;;;;;47.25;15.23;;;3.20;99.90;;;;;;5133555;27;20168;-49
2022/01/15 03:48:59;;;;;;;61.38;14.50;;;3.10;99.90;;;;;;5134090;27;20160;-48
2022/01/15 03:51:25;;;;;;;56.70;16.30;;;3.20;99.90;;;;;;5133553;27;20164;-48
2022/01/15 03:53:50;;;;;;;58.38;15.75;;;3.10;99.90;;;;;;5133321;27;20726;-47
2022/01/15 03:56:16;;;;;;;60.78;16.08;;;3.10;99.90;;;;;;5133476;27;20657;-48
2022/01/15 03:58:41;;;;;;;71.10;17.65;;;3.20;99.90;;;;;;5133356;27;20633;-47
2022/01/15 04:01:07;;;;;;;48.03;14.43;;;3.10;99.90;;;;;;5133276;27;20168;-49
2022/01/15 04:03:33;;;;;;;33.03;12.57;;;3.10;99.90;;;;;;5133334;27;20615;-47
2022/01/15 04:05:58;;;;;;;53.58;15.70;;;3.00;99.90;;;;;;5133591;27;20266;-46
2022/01/15 04:08:24;;;;;;;40.30;14.02;;;3.00;99.90;;;;;;5133228;27;20176;-48
2022/01/15 04:10:50;;;;;;;59.63;15.63;;;3.20;99.90;;;;;;5133057;27;20247;-48
2022/01/15 04:13:15;;;;;;;47.92;15.45;;;3.20;99.90;;;;;;5133318;27;20200;-47
2022/01/15 04:15:42;;;;;;;60.75;16.67;;;3.20;99.90;;;;;;5133149;27;20649;-47
2022/01/15 04:18:08;;;;;;;61.08;15.23;;;3.30;99.90;;;;;;5133066;27;20642;-47
2022/01/15 04:20:33;;;;;;;48.97;14.82;;;3.20;99.90;;;;;;5132900;27;20168;-47
2022/01/15 04:22:59;;;;;;;54.40;15.65;;;3.20;99.90;;;;;;5133589;27;20710;-47
2022/01/15 04:25:25;;;;;;;76.22;15.75;;;3.20;99.90;;;;;;5132929;27;20621;-47
2022/01/15 04:27:51;;;;;;;55.30;15.65;;;3.10;99.90;;;;;;5132977;27;20533;-47
2022/01/15 04:30:18;;;;;;;79.55;16.73;;;3.10;99.90;;;;;;5133190;27;20254;-47
2022/01/15 04:32:44;;;;;;;65.07;14.60;;;3.20;99.90;;;;;;5132903;28;20659;-47
2022/01/15 04:35:10;;;;;;;62.60;16.92;;;3.10;99.90;;;;;;5133229;27;20164;-48
2022/01/15 04:37:43;;;;;;;66.55;16.67;;;3.00;99.90;;;;;;5132871;27;20173;-48
2022/01/15 04:40:10;;;;;;;62.67;16.15;;;3.00;99.90;;;;;;5133130;27;20172;-47
2022/01/15 04:42:36;;;;;;;74.78;16.80;;;3.00;99.90;;;;;;5132935;27;20253;-47
2022/01/15 04:45:03;;;;;;;70.88;15.95;;;2.90;99.90;;;;;;5133277;27;20189;-48
2022/01/15 04:47:29;;;;;;;93.38;17.60;;;2.10;99.90;;;;;;5133343;27;20168;-48
2022/01/15 04:49:55;;;;;;;79.07;17.85;;;2.80;99.90;;;;;;5114363;28;20213;-47
2022/01/15 04:52:22;;;;;;;68.97;15.45;;;2.70;99.90;;;;;;5132784;27;20211;-47
2022/01/15 04:54:48;;;;;;;77.47;15.93;;;2.80;99.90;;;;;;5133018;27;20211;-46
2022/01/15 04:57:13;;;;;;;66.07;17.55;;;2.70;99.90;;;;;;5132759;28;20195;-47
2022/01/15 04:59:39;;;;;;;77.45;18.08;;;2.70;99.90;;;;;;5132717;27;20639;-47
2022/01/15 05:02:05;;;;;;;45.08;15.05;;;2.70;99.90;;;;;;5132664;27;20648;-47
2022/01/15 05:04:30;;;;;;;54.10;15.60;;;2.80;99.90;;;;;;5133141;27;20525;-49
2022/01/15 05:06:56;;;;;;;79.70;16.65;;;2.80;99.90;;;;;;5132599;27;20221;-47
2022/01/15 05:09:21;;;;;;;68.20;17.50;;;2.80;99.90;;;;;;5132510;27;20583;-48
2022/01/15 05:12:03;;;;;;;68.40;18.52;;;2.70;99.90;;;;;;5132402;27;20208;-47
2022/01/15 05:14:29;;;;;;;71.25;18.58;;;2.80;99.90;;;;;;5117285;28;20172;-47
2022/01/15 05:16:55;;;;;;;64.43;18.17;;;2.80;99.90;;;;;;5132541;27;20164;-48
2022/01/15 05:19:21;;;;;;;57.35;16.67;;;2.90;99.90;;;;;;5132552;27;20187;-49
2022/01/15 05:21:46;;;;;;;47.72;17.17;;;2.80;99.90;;;;;;5132493;27;20169;-48
2022/01/15 05:24:12;;;;;;;85.15;18.02;;;2.90;99.90;;;;;;5132698;27;20163;-47
2022/01/15 05:26:38;;;;;;;45.70;17.40;;;2.90;99.90;;;;;;5132444;27;20642;-48
2022/01/15 05:29:03;;;;;;;47.03;16.83;;;2.30;99.90;;;;;;5132711;27;20171;-47
2022/01/15 05:31:29;;;;;;;60.85;16.98;;;2.90;99.90;;;;;;5133633;27;20616;-48
2022/01/15 05:33:55;;;;;;;60.92;16.83;;;2.80;99.90;;;;;;5136054;27;20287;-49
2022/01/15 05:36:21;;;;;;;50.88;16.63;;;2.70;99.90;;;;;;5136315;27;20254;-48
2022/01/15 05:38:47;;;;;;;93.68;18.08;;;2.80;99.90;;;;;;5136114;27;20583;-48
2022/01/15 05:41:12;;;;;;;47.75;16.73;;;2.80;99.90;;;;;;5136058;27;20172;-48
2022/01/15 05:43:38;;;;;;;56.97;17.42;;;2.80;99.90;;;;;;5136022;27;20175;-49
2022/01/15 05:46:03;;;;;;;47.55;16.50;;;2.80;99.90;;;;;;5136050;27;20164;-49
2022/01/15 05:48:29;;;;;;;43.60;15.77;;;2.70;99.90;;;;;;5136396;27;20566;-49
2022/01/15 05:50:54;;;;;;;51.13;18.08;;;2.80;99.90;;;;;;5135751;27;20168;-49
2022/01/15 05:53:21;;;;;;;38.25;16.02;;;2.80;99.90;;;;;;5135998;27;20208;-49
2022/01/15 05:55:47;;;;;;;51.22;15.48;;;2.80;99.90;;;;;;5135736;27;20168;-48
2022/01/15 05:58:12;;;;;;;52.38;16.42;;;2.80;99.90;;;;;;5135665;27;20164;-49
2022/01/15 06:00:38;;;;;;;63.60;16.75;;;2.70;99.90;;;;;;5135667;27;20175;-49
2022/01/15 06:03:03;;;;;;;42.05;16.52;;;2.80;99.90;;;;;;5135696;27;20242;-48
2022/01/15 06:05:29;;;;;;;49.75;16.55;;;2.80;99.90;;;;;;5135981;27;20243;-49
2022/01/15 06:07:55;;;;;;;38.28;14.63;;;2.70;99.90;;;;;;5135558;27;20195;-49
2022/01/15 06:10:20;;;;;;;42.67;15.20;;;2.70;99.90;;;;;;5135438;27;20166;-48
2022/01/15 06:12:46;;;;;;;38.42;15.77;;;2.70;99.90;;;;;;5135388;27;20206;-48
2022/01/15 06:15:16;;;;;;;40.03;16.75;;;2.60;99.90;;;;;;5135357;27;20160;-48
2022/01/15 06:17:42;;;;;;;35.72;15.80;;;2.70;99.90;;;;;;5135324;27;20160;-49
2022/01/15 06:20:09;;;;;;;35.75;15.63;;;2.80;99.90;;;;;;5135322;27;20684;-48
2022/01/15 06:22:35;;;;;;;34.92;15.63;;;2.80;99.90;;;;;;5135212;27;20170;-50
2022/01/15 06:25:03;;;;;;;37.85;16.58;;;2.70;99.90;;;;;;5135447;27;20168;-49
2022/01/15 06:27:29;;;;;;;33.80;17.13;;;2.80;99.90;;;;;;5135409;27;20164;-49
2022/01/15 06:29:56;;;;;;;32.63;15.40;;;2.80;99.90;;;;;;5135289;27;20180;-49
2022/01/15 06:32:26;;;;;;;31.95;15.50;;;2.70;99.90;;;;;;5134951;27;20196;-48
2022/01/15 06:34:52;;;;;;;30.80;15.45;;;2.70;99.90;;;;;;5135201;27;20179;-49
2022/01/15 06:37:18;;;;;;;33.38;15.70;;;2.70;99.90;;;;;;5134929;27;20164;-49
2022/01/15 06:39:45;;;;;;;29.23;15.02;;;2.60;99.90;;;;;;5134936;27;20615;-50
2022/01/15 06:42:10;;;;;;;30.98;16.70;;;2.70;99.90;;;;;;5134197;27;20168;-48
2022/01/15 06:44:36;;;;;;;22.95;13.75;;;2.90;99.90;;;;;;5134739;27;20175;-49
2022/01/15 06:47:02;;;;;;;30.83;14.55;;;2.70;99.90;;;;;;5135016;27;20171;-48
2022/01/15 06:49:28;;;;;;;32.38;15.13;;;2.70;99.90;;;;;;5134909;27;20195;-49
2022/01/15 06:51:53;;;;;;;25.05;13.63;;;2.80;99.90;;;;;;5134547;27;20168;-48
2022/01/15 06:54:19;;;;;;;28.02;14.65;;;2.70;99.90;;;;;;5134528;27;20172;-47
2022/01/15 06:56:44;;;;;;;29.05;14.20;;;2.80;99.90;;;;;;5116114;27;20171;-49
2022/01/15 06:59:10;;;;;;;25.60;13.57;;;2.80;99.90;;;;;;5134610;27;20171;-48
2022/01/15 07:01:35;;;;;;;24.60;14.45;;;2.70;99.90;;;;;;5134491;27;20172;-49
2022/01/15 07:04:01;;;;;;;23.73;13.35;;;2.90;99.90;;;;;;5134702;27;20624;-50
2022/01/15 07:06:26;;;;;;;23.42;14.32;;;2.90;99.90;;;;;;5134297;27;20263;-49
2022/01/15 07:08:52;;;;;;;24.67;12.60;;;2.80;99.90;;;;;;5134246;27;20167;-47
2022/01/15 07:11:18;;;;;;;24.50;13.63;;;2.80;99.90;;;;;;5134094;27;20584;-48
2022/01/15 07:13:43;;;;;;;25.45;14.30;;;2.70;99.90;;;;;;5134146;27;20298;-49
2022/01/15 07:16:09;;;;;;;23.50;13.60;;;2.80;99.90;;;;;;5134134;27;20243;-47
2022/01/15 07:18:34;;;;;;;24.83;12.90;;;2.80;99.90;;;;;;5133894;27;20633;-48
2022/01/15 07:21:00;;;;;;;25.27;12.02;;;2.80;99.90;;;;;;5134282;27;20527;-47
2022/01/15 07:23:25;;;;;;;24.20;12.38;;;2.80;99.90;;;;;;5134234;27;20167;-47
2022/01/15 07:25:51;;;;;;;25.73;12.60;;;2.90;99.90;;;;;;5133865;27;20160;-48
2022/01/15 07:28:18;;;;;;;22.98;13.48;;;2.90;99.90;;;;;;5133858;27;20160;-48
2022/01/15 07:30:44;;;;;;;23.52;12.98;;;2.80;99.90;;;;;;5133811;27;20164;-49
2022/01/15 07:33:10;;;;;;;23.02;12.00;;;2.80;99.90;;;;;;5133769;27;20203;-47
2022/01/15 07:35:35;;;;;;;22.05;12.98;;;2.70;99.90;;;;;;5133690;27;20170;-48
2022/01/15 07:38:01;;;;;;;21.40;13.20;;;2.70;99.90;;;;;;5134076;27;20171;-48
2022/01/15 07:40:27;;;;;;;20.20;11.80;;;2.80;99.90;;;;;;5133588;27;20195;-48
2022/01/15 07:42:52;;;;;;;21.92;12.23;;;2.70;99.90;;;;;;5133902;27;20164;-49
2022/01/15 07:45:27;;;;;;;20.83;12.85;;;2.70;99.90;;;;;;5133168;27;20217;-46
2022/01/15 07:47:53;;;;;;;22.23;13.00;;;2.70;99.90;;;;;;5133254;27;20258;-47
2022/01/15 07:50:23;;;;;;;21.25;12.27;;;2.70;99.90;;;;;;5133522;27;20250;-48
2022/01/15 07:52:53;;;;;;;22.80;12.93;;;2.80;99.90;;;;;;5133652;27;20208;-47
2022/01/15 07:55:19;;;;;;;20.55;12.45;;;2.80;99.90;;;;;;5132645;27;20167;-47
2022/01/15 07:57:45;;;;;;;20.98;13.02;;;2.80;99.90;;;;;;5132958;27;20529;-47
2022/01/15 08:00:15;;;;;;;21.17;12.82;;;2.80;99.90;;;;;;5133016;27;20293;-47
2022/01/15 08:02:41;;;;;;;22.92;13.30;;;2.80;99.90;;;;;;5132851;27;20185;-48
2022/01/15 08:05:07;;;;;;;19.75;12.35;;;2.80;99.90;;;;;;5133267;27;20183;-48
2022/01/15 08:07:33;;;;;;;19.42;12.27;;;2.90;99.90;;;;;;5133144;27;20160;-47
2022/01/15 08:10:00;;;;;;;21.98;12.75;;;2.90;99.90;;;;;;5114911;27;20189;-48
2022/01/15 08:12:25;;;;;;;21.48;12.60;;;2.80;99.90;;;;;;5133035;27;20219;-48
2022/01/15 08:14:55;;;;;;;19.27;13.00;;;2.90;99.90;;;;;;5133317;27;20734;-48
2022/01/15 08:17:20;;;;;;;20.63;13.00;;;2.90;99.90;;;;;;5133345;27;20164;-48
2022/01/15 08:19:46;;;;;;;22.52;13.20;;;2.90;99.90;;;;;;5133189;27;20632;-48
2022/01/15 08:22:12;;;;;;;17.08;11.60;;;2.90;99.90;;;;;;5132915;27;20199;-48
2022/01/15 08:24:38;;;;;;;17.67;11.90;;;2.90;99.90;;;;;;5132895;27;20615;-48
2022/01/15 08:27:03;;;;;;;19.50;11.52;;;2.90;99.90;;;;;;5132750;27;20178;-49
2022/01/15 08:29:29;;;;;;;17.55;11.57;;;2.90;99.90;;;;;;5132933;27;20156;-48
2022/01/15 08:31:56;;;;;;;18.10;11.65;;;2.80;99.90;;;;;;5114203;27;20168;-48
2022/01/15 08:34:21;;;;;;;17.67;11.57;;;2.80;99.90;;;;;;5114469;27;20190;-47
2022/01/15 08:36:47;;;;;;;16.63;11.52;;;2.80;99.90;;;;;;5132671;27;20160;-47
2022/01/15 08:39:13;;;;;;;15.93;11.18;;;2.90;99.90;;;;;;5132798;27;20203;-48
2022/01/15 08:41:39;;;;;;;19.33;12.05;;;2.90;99.90;;;;;;5132914;27;20160;-48
2022/01/15 08:44:06;;;;;;;17.42;11.73;;;2.90;99.90;;;;;;5133053;27;20241;-49
2022/01/15 08:46:32;;;;;;;18.08;12.63;;;3.00;99.90;;;;;;5133416;27;20175;-48
2022/01/15 08:48:58;;;;;;;15.32;10.98;;;3.10;99.90;;;;;;5133127;28;20183;-48
2022/01/15 08:51:23;;;;;;;17.20;11.02;;;3.10;99.90;;;;;;5132838;27;20210;-49
2022/01/15 08:53:49;;;;;;;17.83;10.65;;;3.20;99.90;;;;;;5132687;27;20192;-48
2022/01/15 08:56:14;;;;;;;15.25;10.82;;;3.20;99.90;;;;;;5133029;27;20533;-49
2022/01/15 08:58:40;;;;;;;15.65;10.80;;;3.10;99.90;;;;;;5097429;28;20172;-49
2022/01/15 09:01:13;;;;;;;15.95;10.35;;;3.10;99.90;;;;;;5132729;27;20168;-49
2022/01/15 09:03:39;;;;;;;15.30;11.00;;;3.10;99.90;;;;;;5132955;27;20175;-49
2022/01/15 09:06:04;;;;;;;17.90;10.27;;;3.20;99.90;;;;;;5134593;27;20627;-48
2022/01/15 09:08:30;;;;;;;16.83;9.70;;;3.30;99.90;;;;;;5136924;27;20214;-48
2022/01/15 09:10:55;;;;;;;16.42;10.13;;;3.10;99.90;;;;;;5136474;27;20211;-48
2022/01/15 09:13:21;;;;;;;14.85;10.48;;;3.20;99.90;;;;;;5101094;27;20581;-48
2022/01/15 09:15:49;;;;;;;17.42;12.32;;;3.20;99.90;;;;;;5118110;27;20676;-50
2022/01/15 09:18:15;;;;;;;13.95;10.27;;;3.20;99.90;;;;;;5136385;27;20168;-50
2022/01/15 09:20:41;;;;;;;14.75;9.82;;;3.20;99.90;;;;;;5136419;27;20510;-49
2022/01/15 09:23:06;;;;;;;16.77;11.27;;;3.20;99.90;;;;;;5136341;27;20632;-47
2022/01/15 09:25:32;;;;;;;16.95;11.00;;;3.30;99.90;;;;;;5136308;27;20586;-48
2022/01/15 09:30:42;;;;;;;15.95;10.50;;;3.40;99.90;;;;;;5136279;27;20175;-49
2022/01/15 09:33:08;;;;;;;23.05;13.82;;;3.40;99.90;;;;;;5136098;27;20208;-48
2022/01/15 09:35:34;;;;;;;17.73;12.18;;;3.30;99.90;;;;;;5136021;27;20196;-48
2022/01/15 09:38:00;;;;;;;21.02;13.18;;;3.50;99.90;;;;;;5136368;27;20176;-48
2022/01/15 09:40:27;;;;;;;17.42;11.10;;;3.50;99.90;;;;;;5117605;27;20212;-49
2022/01/15 09:42:54;;;;;;;24.60;16.33;;;3.50;99.90;;;;;;5135923;27;20218;-48
2022/01/15 09:45:22;;;;;;;17.60;11.63;;;3.50;99.90;;;;;;5135891;27;20210;-48
2022/01/15 09:47:58;;;;;;;22.48;15.57;;;3.50;99.90;;;;;;5135773;27;20167;-49
2022/01/15 09:50:25;;;;;;;34.22;20.05;;;3.50;99.90;;;;;;5135718;27;20247;-49
2022/01/15 09:52:53;;;;;;;23.88;14.85;;;3.60;99.90;;;;;;5135620;27;20191;-49
2022/01/15 09:55:20;;;;;;;20.25;12.82;;;3.60;99.90;;;;;;5135663;27;20175;-49
2022/01/15 09:57:45;;;;;;;33.17;20.80;;;3.50;99.90;;;;;;5135929;27;20176;-49
2022/01/15 10:00:18;;;;;;;40.53;24.63;;;3.60;99.90;;;;;;5135525;27;20172;-48
2022/01/15 10:02:46;;;;;;;45.88;27.20;;;3.60;99.90;;;;;;5135757;27;20254;-49
2022/01/15 10:05:13;;;;;;;45.97;30.08;;;3.50;99.90;;;;;;5135495;27;20627;-49
2022/01/15 10:08:03;;;;;;;16.48;11.85;;;3.60;99.90;;;;;;5135447;27;20217;-50
2022/01/15 10:10:31;;;;;;;16.58;11.75;;;3.60;99.90;;;;;;5117063;27;20216;-49
2022/01/15 10:13:14;;;;;;;35.13;21.23;;;3.60;99.90;;;;;;5135244;27;20675;-50
2022/01/15 10:15:42;;;;;;;29.33;18.40;;;3.50;99.90;;;;;;5135585;27;20164;-49
2022/01/15 10:18:19;;;;;;;21.92;14.00;;;3.60;99.90;;;;;;5134666;27;20170;-49
2022/01/15 10:20:45;;;;;;;32.30;20.00;;;3.60;99.90;;;;;;5135365;27;20168;-50
2022/01/15 10:23:18;;;;;;;43.28;28.80;;;3.70;99.90;;;;;;5135474;27;20212;-49
2022/01/15 10:25:44;;;;;;;19.02;13.90;;;3.80;99.90;;;;;;5135300;27;20164;-49
2022/01/15 10:28:10;;;;;;;19.73;10.77;;;3.80;99.90;;;;;;5135067;27;20662;-50
2022/01/15 10:30:36;;;;;;;20.45;13.07;;;3.80;99.90;;;;;;5135177;27;20168;-49
2022/01/15 10:33:09;;;;;;;22.70;16.13;;;3.80;99.90;;;;;;5135145;27;20673;-48
2022/01/15 10:35:37;;;;;;;23.40;17.35;;;3.80;99.90;;;;;;5134859;27;20552;-49
2022/01/15 10:38:06;;;;;;;39.80;30.48;;;3.90;99.90;;;;;;5134850;27;20172;-49
2022/01/15 10:40:55;;;;;;;32.88;22.20;;;3.90;99.90;;;;;;5134835;27;20243;-48
2022/01/15 10:43:30;;;;;;;13.48;9.73;;;4.00;99.90;;;;;;5135009;27;20182;-49
2022/01/15 10:45:59;;;;;;;15.55;11.00;;;3.90;99.90;;;;;;5134634;27;20167;-50
2022/01/15 10:48:31;;;;;;;17.17;11.18;;;3.90;99.90;;;;;;5134865;27;20168;-50
2022/01/15 10:51:01;;;;;;;18.00;11.10;;;3.90;99.90;;;;;;5134708;27;20615;-49
2022/01/15 10:53:44;;;;;;;14.45;9.85;;;4.00;99.90;;;;;;5134352;27;20211;-49
2022/01/15 10:56:12;;;;;;;13.45;8.82;;;4.10;99.90;;;;;;5134674;27;20247;-49
2022/01/15 10:58:39;;;;;;;13.02;9.45;;;4.00;99.90;;;;;;5134470;27;20164;-50
2022/01/15 11:01:05;;;;;;;16.27;10.45;;;4.00;99.90;;;;;;5134413;27;20203;-49
2022/01/15 11:03:39;;;;;;;16.13;10.02;;;4.00;99.90;;;;;;5134619;27;20168;-50
2022/01/15 11:06:05;;;;;;;13.70;9.05;;;4.00;99.90;;;;;;5134274;27;20188;-49
2022/01/15 11:08:36;;;;;;;14.07;8.98;;;4.00;99.90;;;;;;5134581;27;20164;-50
2022/01/15 11:11:05;;;;;;;13.80;9.27;;;4.10;99.90;;;;;;5134315;27;20348;-49
2022/01/15 11:13:33;;;;;;;12.23;9.25;;;4.10;99.90;;;;;;5134570;27;20214;-50
2022/01/15 11:16:02;;;;;;;12.18;9.00;;;4.20;99.90;;;;;;5134374;27;20156;-49
2022/01/15 11:18:31;;;;;;;12.18;8.65;;;4.10;99.90;;;;;;5134412;27;20156;-49
2022/01/15 11:21:03;;;;;;;17.73;10.48;;;4.10;99.90;;;;;;5133991;27;20159;-49
2022/01/15 11:23:30;;;;;;;12.95;8.95;;;4.00;99.90;;;;;;5134655;27;20193;-48
2022/01/15 11:25:58;;;;;;;13.98;9.43;;;4.00;99.90;;;;;;5115425;27;20247;-49
2022/01/15 11:28:27;;;;;;;16.30;10.35;;;4.00;99.90;;;;;;5133285;27;20243;-49
2022/01/15 11:30:56;;;;;;;12.43;8.75;;;4.00;99.90;;;;;;5133198;27;20164;-48
2022/01/15 11:33:23;;;;;;;16.75;10.00;;;4.10;99.90;;;;;;5133793;27;20235;-49
2022/01/15 11:35:50;;;;;;;13.73;9.70;;;4.10;99.90;;;;;;5133557;27;20176;-49
2022/01/15 11:38:41;;;;;;;15.70;11.65;;;4.10;99.90;;;;;;5133656;27;20186;-49
2022/01/15 11:41:40;;;;;;;15.80;10.38;;;4.20;99.90;;;;;;5133525;27;20642;-48
2022/01/15 11:44:07;;;;;;;14.13;9.57;;;4.30;99.90;;;;;;5114438;27;20179;-48
2022/01/15 11:46:54;;;;;;;16.08;9.80;;;4.30;99.90;;;;;;5133577;27;20164;-48
2022/01/15 11:49:42;;;;;;;15.32;11.13;;;4.30;99.90;;;;;;5133172;27;20171;-49
2022/01/15 11:52:11;;;;;;;16.85;11.45;;;4.20;99.90;;;;;;5133407;27;20156;-49
2022/01/15 11:55:05;;;;;;;13.30;9.38;;;4.30;99.90;;;;;;5133549;27;20255;-49
2022/01/15 11:57:33;;;;;;;19.70;14.43;;;4.30;99.90;;;;;;5133537;27;20247;-47
2022/01/15 12:00:00;;;;;;;17.67;11.18;;;4.30;99.90;;;;;;5133863;27;20168;-48
2022/01/15 12:02:31;;;;;;;15.38;11.05;;;4.40;99.90;;;;;;5114751;27;20179;-48
2022/01/15 12:05:18;;;;;;;17.95;12.70;;;4.50;99.90;;;;;;5133239;27;20163;-48
2022/01/15 12:08:11;;;;;;;37.28;25.02;;;4.50;99.90;;;;;;5132969;27;20167;-49
2022/01/15 12:10:49;;;;;;;29.05;18.45;;;4.60;99.90;;;;;;5117705;27;20253;-50
2022/01/15 12:13:18;;;;;;;16.60;11.50;;;4.50;99.90;;;;;;5132182;27;20215;-48
2022/01/15 12:15:45;;;;;;;16.35;12.23;;;4.50;99.90;;;;;;5132796;27;20536;-48
2022/01/15 12:18:23;;;;;;;12.48;9.55;;;4.60;99.90;;;;;;5132853;27;20163;-47
2022/01/15 12:20:54;;;;;;;16.05;9.15;;;4.60;99.90;;;;;;5132814;27;20164;-46
2022/01/15 12:23:20;;;;;;;13.65;9.57;;;4.60;99.90;;;;;;5115385;27;20190;-48
2022/01/15 12:25:47;;;;;;;13.98;10.07;;;4.60;99.90;;;;;;5132722;27;20164;-47
2022/01/15 12:28:15;;;;;;;11.73;9.90;;;4.60;99.90;;;;;;5132395;27;20168;-49
2022/01/15 12:30:50;;;;;;;13.07;9.68;;;4.50;99.90;;;;;;5133045;27;20258;-49
2022/01/15 12:33:17;;;;;;;14.02;9.18;;;4.50;99.90;;;;;;5131508;27;20226;-48
2022/01/15 12:35:47;;;;;;;12.70;9.15;;;4.60;99.90;;;;;;5131875;27;20163;-46
2022/01/15 12:38:21;;;;;;;11.02;8.85;;;4.70;99.90;;;;;;5132631;27;20211;-48
2022/01/15 12:40:54;;;;;;;12.90;9.32;;;4.70;99.90;;;;;;5134686;27;20163;-49
2022/01/15 12:43:26;;;;;;;17.23;12.48;;;4.70;99.90;;;;;;5137232;27;20171;-47
2022/01/15 12:46:13;;;;;;;11.73;8.75;;;4.70;99.90;;;;;;5137298;27;20172;-48
2022/01/15 12:48:43;;;;;;;14.02;9.38;;;4.90;99.90;;;;;;5136855;27;20175;-48
2022/01/15 12:51:15;;;;;;;10.73;8.43;;;4.70;99.90;;;;;;5137129;27;20176;-49
2022/01/15 12:53:44;;;;;;;13.13;9.38;;;4.80;99.90;;;;;;5136739;27;20211;-49
2022/01/15 12:56:12;;;;;;;14.10;10.02;;;4.70;99.90;;;;;;5136755;27;20171;-47
2022/01/15 12:58:39;;;;;;;13.82;10.13;;;4.70;99.90;;;;;;5136786;27;20168;-47
2022/01/15 13:01:12;;;;;;;13.60;9.88;;;4.70;99.90;;;;;;5128437;27;20216;-47